sensor_id;sensor_type;location;lat;lon;timestamp;pressure;altitude;pressure_sealevel;temperature;humidity
21086;BME280;34247;50.064;19.970;2023-04-15T00:00:43;98009.44;;;12.98;65.64
21086;BME280;34247;50.064;19.970;2023-04-15T00:01:53;97999.06;;;12.95;65.28
21086;BME280;34247;50.064;19.970;2023-04-15T00:03:00;97990.78;;;12.98;65.38
21086;BME280;34247;50.064;19.970;2023-04-15T00:04:18;97993.44;;;12.98;64.95
21086;BME280;34247;50.064;19.970;2023-04-15T00:05:28;97998.78;;;12.98;64.95
21086;BME280;34247;50.064;19.970;2023-04-15T00:06:36;98001.94;;;13.02;65.24
21086;BME280;34247;50.064;19.970;2023-04-15T00:07:57;98006.16;;;13.05;65.15
21086;BME280;34247;50.064;19.970;2023-04-15T00:09:11;98011.34;;;13.06;65.30
21086;BME280;34247;50.064;19.970;2023-04-15T00:10:16;98016.50;;;13.08;65.04
21086;BME280;34247;50.064;19.970;2023-04-15T00:11:21;98020.84;;;13.09;65.28
21086;BME280;34247;50.064;19.970;2023-04-15T00:12:27;98024.06;;;13.12;65.20
21086;BME280;34247;50.064;19.970;2023-04-15T00:13:41;98024.50;;;13.08;65.08
21086;BME280;34247;50.064;19.970;2023-04-15T00:14:47;98024.19;;;13.11;65.11
21086;BME280;34247;50.064;19.970;2023-04-15T00:15:52;98030.50;;;13.10;65.26
21086;BME280;34247;50.064;19.970;2023-04-15T00:16:56;98028.81;;;13.09;65.65
21086;BME280;34247;50.064;19.970;2023-04-15T00:18:16;98023.50;;;13.09;66.19
21086;BME280;34247;50.064;19.970;2023-04-15T00:19:22;98026.00;;;13.10;65.90
21086;BME280;34247;50.064;19.970;2023-04-15T00:20:30;98026.72;;;13.12;66.32
21086;BME280;34247;50.064;19.970;2023-04-15T00:21:36;98026.00;;;13.10;65.99
21086;BME280;34247;50.064;19.970;2023-04-15T00:22:44;98032.47;;;13.08;66.19
21086;BME280;34247;50.064;19.970;2023-04-15T00:23:50;98033.31;;;13.08;65.75
21086;BME280;34247;50.064;19.970;2023-04-15T00:24:58;98030.50;;;13.10;66.33
21086;BME280;34247;50.064;19.970;2023-04-15T00:26:02;98030.66;;;13.08;66.08
21086;BME280;34247;50.064;19.970;2023-04-15T00:27:20;98026.16;;;13.09;66.22
21086;BME280;34247;50.064;19.970;2023-04-15T00:28:29;98030.81;;;13.07;65.87
21086;BME280;34247;50.064;19.970;2023-04-15T00:29:37;98014.00;;;13.06;65.37
21086;BME280;34247;50.064;19.970;2023-04-15T00:30:45;98021.81;;;13.08;65.41
21086;BME280;34247;50.064;19.970;2023-04-15T00:31:55;98012.84;;;13.09;65.74
21086;BME280;34247;50.064;19.970;2023-04-15T00:33:03;98014.84;;;13.07;65.46
21086;BME280;34247;50.064;19.970;2023-04-15T00:34:10;98002.78;;;13.03;65.55
21086;BME280;34247;50.064;19.970;2023-04-15T00:35:18;98005.94;;;12.98;64.79
21086;BME280;34247;50.064;19.970;2023-04-15T00:36:26;98005.09;;;12.97;65.39
21086;BME280;34247;50.064;19.970;2023-04-15T00:37:35;98009.44;;;12.98;65.47
21086;BME280;34247;50.064;19.970;2023-04-15T00:38:48;98011.69;;;12.93;65.31
21086;BME280;34247;50.064;19.970;2023-04-15T00:40:06;98003.41;;;12.96;65.04
21086;BME280;34247;50.064;19.970;2023-04-15T00:41:17;98013.34;;;12.94;65.08
21086;BME280;34247;50.064;19.970;2023-04-15T00:42:31;98008.03;;;12.94;65.48
21086;BME280;34247;50.064;19.970;2023-04-15T00:43:47;98003.09;;;13.00;65.67
21086;BME280;34247;50.064;19.970;2023-04-15T00:44:51;98013.75;;;13.00;65.59
21086;BME280;34247;50.064;19.970;2023-04-15T00:46:14;98008.19;;;12.93;65.31
21086;BME280;34247;50.064;19.970;2023-04-15T00:47:29;97994.72;;;12.94;65.82
21086;BME280;34247;50.064;19.970;2023-04-15T00:48:46;98009.44;;;12.98;65.43
21086;BME280;34247;50.064;19.970;2023-04-15T00:49:53;98009.59;;;12.97;65.32
21086;BME280;34247;50.064;19.970;2023-04-15T00:51:00;98010.09;;;13.01;65.41
21086;BME280;34247;50.064;19.970;2023-04-15T00:52:10;97996.78;;;13.01;65.09
21086;BME280;34247;50.064;19.970;2023-04-15T00:53:14;97996.94;;;12.99;65.07
21086;BME280;34247;50.064;19.970;2023-04-15T00:54:18;97998.09;;;12.96;65.02
21086;BME280;34247;50.064;19.970;2023-04-15T00:55:22;97989.09;;;12.97;65.30
21086;BME280;34247;50.064;19.970;2023-04-15T00:56:27;97994.97;;;13.01;65.37
21086;BME280;34247;50.064;19.970;2023-04-15T00:57:32;97987.13;;;13.00;64.79
21086;BME280;34247;50.064;19.970;2023-04-15T00:58:37;97996.78;;;13.01;65.18
21086;BME280;34247;50.064;19.970;2023-04-15T00:59:41;97996.78;;;13.01;64.92
21086;BME280;34247;50.064;19.970;2023-04-15T01:00:45;97998.28;;;13.03;65.09
21086;BME280;34247;50.064;19.970;2023-04-15T01:01:52;98007.28;;;13.02;65.07
21086;BME280;34247;50.064;19.970;2023-04-15T01:02:56;98007.28;;;13.02;64.87
21086;BME280;34247;50.064;19.970;2023-04-15T01:04:07;98014.28;;;13.03;64.73
21086;BME280;34247;50.064;19.970;2023-04-15T01:05:17;98014.28;;;13.03;64.61
21086;BME280;34247;50.064;19.970;2023-04-15T01:06:39;98016.25;;;13.01;65.06
21086;BME280;34247;50.064;19.970;2023-04-15T01:07:43;98020.59;;;13.02;64.61
21086;BME280;34247;50.064;19.970;2023-04-15T01:08:56;98016.94;;;13.03;64.57
21086;BME280;34247;50.064;19.970;2023-04-15T01:10:21;98029.56;;;13.01;65.00
21086;BME280;34247;50.064;19.970;2023-04-15T01:11:39;98022.59;;;13.00;64.70
21086;BME280;34247;50.064;19.970;2023-04-15T01:12:49;98017.56;;;12.97;64.49
21086;BME280;34247;50.064;19.970;2023-04-15T01:13:58;98016.03;;;12.94;64.82
21086;BME280;34247;50.064;19.970;2023-04-15T01:15:12;98016.03;;;12.94;64.68
21086;BME280;34247;50.064;19.970;2023-04-15T01:16:20;98017.00;;;12.93;64.65
21086;BME280;34247;50.064;19.970;2023-04-15T01:17:39;98015.78;;;12.88;64.78
21086;BME280;34247;50.064;19.970;2023-04-15T01:18:52;98016.94;;;12.85;64.84
21086;BME280;34247;50.064;19.970;2023-04-15T01:20:14;98020.59;;;12.84;64.71
21086;BME280;34247;50.064;19.970;2023-04-15T01:21:27;98017.38;;;12.81;65.03
21086;BME280;34247;50.064;19.970;2023-04-15T01:22:34;98015.41;;;12.83;64.71
21086;BME280;34247;50.064;19.970;2023-04-15T01:23:46;98017.25;;;12.82;64.72
21086;BME280;34247;50.064;19.970;2023-04-15T01:25:33;98012.19;;;12.79;65.10
21086;BME280;34247;50.064;19.970;2023-04-15T01:26:39;98023.16;;;12.76;65.23
21086;BME280;34247;50.064;19.970;2023-04-15T01:27:45;98022.16;;;12.77;65.06
21086;BME280;34247;50.064;19.970;2023-04-15T01:28:57;98025.28;;;12.73;64.78
21086;BME280;34247;50.064;19.970;2023-04-15T01:30:09;98032.13;;;12.75;65.18
21086;BME280;34247;50.064;19.970;2023-04-15T01:31:15;98036.91;;;12.72;64.91
21086;BME280;34247;50.064;19.970;2023-04-15T01:32:23;98038.88;;;12.69;65.09
21086;BME280;34247;50.064;19.970;2023-04-15T01:33:33;98042.81;;;12.65;65.58
21086;BME280;34247;50.064;19.970;2023-04-15T01:34:38;98038.09;;;12.59;66.24
21086;BME280;34247;50.064;19.970;2023-04-15T01:35:42;98041.47;;;12.61;65.89
21086;BME280;34247;50.064;19.970;2023-04-15T01:36:52;98043.81;;;12.64;65.85
21086;BME280;34247;50.064;19.970;2023-04-15T01:38:07;98043.28;;;12.61;65.62
21086;BME280;34247;50.064;19.970;2023-04-15T01:39:21;98037.25;;;12.59;65.34
21086;BME280;34247;50.064;19.970;2023-04-15T01:40:26;98042.56;;;12.59;65.40
21086;BME280;34247;50.064;19.970;2023-04-15T01:41:34;98044.25;;;12.60;65.71
21086;BME280;34247;50.064;19.970;2023-04-15T01:42:41;98038.91;;;12.60;65.70
21086;BME280;34247;50.064;19.970;2023-04-15T01:43:47;98043.41;;;12.59;65.95
21086;BME280;34247;50.064;19.970;2023-04-15T01:45:01;98033.91;;;12.57;65.71
21086;BME280;34247;50.064;19.970;2023-04-15T01:46:14;98032.50;;;12.53;65.78
21086;BME280;34247;50.064;19.970;2023-04-15T01:47:21;98028.88;;;12.54;65.79
21086;BME280;34247;50.064;19.970;2023-04-15T01:48:29;98027.19;;;12.53;65.77
21086;BME280;34247;50.064;19.970;2023-04-15T01:49:36;98016.16;;;12.48;66.14
21086;BME280;34247;50.064;19.970;2023-04-15T01:50:45;98027.50;;;12.50;65.92
21086;BME280;34247;50.064;19.970;2023-04-15T01:51:51;98028.31;;;12.50;66.09
21086;BME280;34247;50.064;19.970;2023-04-15T01:53:08;98025.13;;;12.47;66.28
21086;BME280;34247;50.064;19.970;2023-04-15T01:54:13;98024.16;;;12.48;66.21
21086;BME280;34247;50.064;19.970;2023-04-15T01:55:45;98026.81;;;12.48;66.21
21086;BME280;34247;50.064;19.970;2023-04-15T01:56:53;98028.63;;;12.47;65.89
21086;BME280;34247;50.064;19.970;2023-04-15T01:58:02;98023.75;;;12.42;66.06
21086;BME280;34247;50.064;19.970;2023-04-15T01:59:30;98030.34;;;12.38;66.21
21086;BME280;34247;50.064;19.970;2023-04-15T02:00:36;98034.53;;;12.41;66.27
21086;BME280;34247;50.064;19.970;2023-04-15T02:01:40;98030.19;;;12.40;66.12
21086;BME280;34247;50.064;19.970;2023-04-15T02:02:48;98039.41;;;12.46;66.07
21086;BME280;34247;50.064;19.970;2023-04-15T02:03:56;98039.72;;;12.42;66.38
21086;BME280;34247;50.064;19.970;2023-04-15T02:05:02;98042.66;;;12.39;66.21
21086;BME280;34247;50.064;19.970;2023-04-15T02:06:14;98054.56;;;12.35;66.48
21086;BME280;34247;50.064;19.970;2023-04-15T02:07:23;98057.41;;;12.34;66.35
21086;BME280;34247;50.064;19.970;2023-04-15T02:08:38;98057.53;;;12.32;66.49
21086;BME280;34247;50.064;19.970;2023-04-15T02:09:48;98056.97;;;12.29;66.75
21086;BME280;34247;50.064;19.970;2023-04-15T02:10:55;98059.78;;;12.27;66.84
21086;BME280;34247;50.064;19.970;2023-04-15T02:12:02;98055.03;;;12.21;66.94
21086;BME280;34247;50.064;19.970;2023-04-15T02:13:11;98064.31;;;12.17;67.01
21086;BME280;34247;50.064;19.970;2023-04-15T02:14:20;98057.03;;;12.19;67.16
21086;BME280;34247;50.064;19.970;2023-04-15T02:15:28;98054.22;;;12.21;67.23
21086;BME280;34247;50.064;19.970;2023-04-15T02:16:33;98055.03;;;12.21;67.32
21086;BME280;34247;50.064;19.970;2023-04-15T02:17:58;98052.69;;;12.18;67.39
21086;BME280;34247;50.064;19.970;2023-04-15T02:19:10;98054.78;;;12.14;67.35
21086;BME280;34247;50.064;19.970;2023-04-15T02:20:23;98048.63;;;12.14;67.46
21086;BME280;34247;50.064;19.970;2023-04-15T02:21:29;98052.13;;;12.14;67.71
21086;BME280;34247;50.064;19.970;2023-04-15T02:22:39;98048.63;;;12.14;67.47
21086;BME280;34247;50.064;19.970;2023-04-15T02:23:45;98056.44;;;12.15;67.35
21086;BME280;34247;50.064;19.970;2023-04-15T02:25:07;98060.94;;;12.15;67.27
21086;BME280;34247;50.064;19.970;2023-04-15T02:26:17;98060.09;;;12.14;67.30
21086;BME280;34247;50.064;19.970;2023-04-15T02:27:21;98060.94;;;12.15;67.13
21086;BME280;34247;50.064;19.970;2023-04-15T02:28:32;98061.94;;;12.14;67.42
21086;BME280;34247;50.064;19.970;2023-04-15T02:29:50;98069.91;;;12.14;67.60
21086;BME280;34247;50.064;19.970;2023-04-15T02:31:05;98070.88;;;12.13;67.25
21086;BME280;34247;50.064;19.970;2023-04-15T02:32:14;98079.41;;;12.17;67.16
21086;BME280;34247;50.064;19.970;2023-04-15T02:33:25;98074.25;;;12.15;67.31
21086;BME280;34247;50.064;19.970;2023-04-15T02:34:38;98072.88;;;12.11;67.31
21086;BME280;34247;50.064;19.970;2023-04-15T02:35:46;98078.88;;;12.13;67.12
21086;BME280;34247;50.064;19.970;2023-04-15T02:36:59;98075.38;;;12.12;67.00
21086;BME280;34247;50.064;19.970;2023-04-15T02:38:14;98075.22;;;12.14;67.17
21086;BME280;34247;50.064;19.970;2023-04-15T02:39:25;98071.88;;;12.12;67.08
21086;BME280;34247;50.064;19.970;2023-04-15T02:40:33;98070.19;;;12.11;67.05
21086;BME280;34247;50.064;19.970;2023-04-15T02:41:46;98068.53;;;12.10;67.00
21086;BME280;34247;50.064;19.970;2023-04-15T02:42:58;98069.78;;;12.06;67.31
21086;BME280;34247;50.064;19.970;2023-04-15T02:44:04;98069.78;;;12.06;67.25
21086;BME280;34247;50.064;19.970;2023-04-15T02:45:20;98072.75;;;12.03;67.57
21086;BME280;34247;50.064;19.970;2023-04-15T02:46:33;98066.03;;;11.99;67.47
21086;BME280;34247;50.064;19.970;2023-04-15T02:47:38;98062.09;;;11.93;67.63
21086;BME280;34247;50.064;19.970;2023-04-15T02:48:53;98067.44;;;11.93;67.88
21086;BME280;34247;50.064;19.970;2023-04-15T02:50:12;98064.50;;;11.96;67.98
21086;BME280;34247;50.064;19.970;2023-04-15T02:51:24;98061.97;;;11.95;67.56
21086;BME280;34247;50.064;19.970;2023-04-15T02:52:31;98055.69;;;11.96;67.61
21086;BME280;34247;50.064;19.970;2023-04-15T02:53:35;98058.47;;;11.94;67.62
21086;BME280;34247;50.064;19.970;2023-04-15T02:54:39;98056.78;;;11.93;68.08
21086;BME280;34247;50.064;19.970;2023-04-15T02:55:44;98065.91;;;11.91;68.10
21086;BME280;34247;50.064;19.970;2023-04-15T02:56:48;98066.16;;;11.87;68.12
21086;BME280;34247;50.064;19.970;2023-04-15T02:57:52;98070.53;;;11.89;67.88
21086;BME280;34247;50.064;19.970;2023-04-15T02:58:56;98068.56;;;11.91;67.70
21086;BME280;34247;50.064;19.970;2023-04-15T03:00:01;98066.88;;;11.90;67.87
21086;BME280;34247;50.064;19.970;2023-04-15T03:01:06;98067.72;;;11.90;67.56
21086;BME280;34247;50.064;19.970;2023-04-15T03:02:13;98066.16;;;11.87;67.71
21086;BME280;34247;50.064;19.970;2023-04-15T03:03:17;98075.84;;;11.89;68.08
21086;BME280;34247;50.064;19.970;2023-04-15T03:04:21;98072.34;;;11.88;68.06
21086;BME280;34247;50.064;19.970;2023-04-15T03:05:25;98078.63;;;11.87;68.02
21086;BME280;34247;50.064;19.970;2023-04-15T03:06:41;98075.97;;;11.87;68.28
21086;BME280;34247;50.064;19.970;2023-04-15T03:07:45;98073.31;;;11.87;68.19
21086;BME280;34247;50.064;19.970;2023-04-15T03:09:01;98080.34;;;11.88;67.82
21086;BME280;34247;50.064;19.970;2023-04-15T03:10:12;98074.44;;;11.84;67.90
21086;BME280;34247;50.064;19.970;2023-04-15T03:11:19;98080.88;;;11.82;68.30
21086;BME280;34247;50.064;19.970;2023-04-15T03:12:33;98080.13;;;11.80;68.38
21086;BME280;34247;50.064;19.970;2023-04-15T03:13:38;98085.59;;;11.78;68.34
21086;BME280;34247;50.064;19.970;2023-04-15T03:14:53;98077.78;;;11.77;68.25
21086;BME280;34247;50.064;19.970;2023-04-15T03:16:00;98087.28;;;11.79;68.45
21086;BME280;34247;50.064;19.970;2023-04-15T03:17:05;98084.50;;;11.71;68.81
21086;BME280;34247;50.064;19.970;2023-04-15T03:18:31;98081.00;;;11.71;69.20
21086;BME280;34247;50.064;19.970;2023-04-15T03:19:46;98084.50;;;11.71;69.31
21086;BME280;34247;50.064;19.970;2023-04-15T03:21:13;98086.31;;;11.71;68.96
21086;BME280;34247;50.064;19.970;2023-04-15T03:22:20;98090.09;;;11.68;69.07
21086;BME280;34247;50.064;19.970;2023-04-15T03:23:26;98091.91;;;11.68;69.45
21086;BME280;34247;50.064;19.970;2023-04-15T03:24:37;98086.47;;;11.69;69.38
21086;BME280;34247;50.064;19.970;2023-04-15T03:25:45;98092.47;;;11.71;68.97
21086;BME280;34247;50.064;19.970;2023-04-15T03:26:57;98098.63;;;11.72;69.03
21086;BME280;34247;50.064;19.970;2023-04-15T03:28:16;98102.13;;;11.72;69.00
21086;BME280;34247;50.064;19.970;2023-04-15T03:29:25;98098.06;;;11.68;69.01
21086;BME280;34247;50.064;19.970;2023-04-15T03:30:40;98100.72;;;11.68;68.79
21086;BME280;34247;50.064;19.970;2023-04-15T03:31:47;98102.69;;;11.66;68.49
21086;BME280;34247;50.064;19.970;2023-04-15T03:32:58;98101.84;;;11.66;69.11
21086;BME280;34247;50.064;19.970;2023-04-15T03:34:18;98095.81;;;11.64;68.70
21086;BME280;34247;50.064;19.970;2023-04-15T03:35:29;98102.69;;;11.66;68.70
21086;BME280;34247;50.064;19.970;2023-04-15T03:36:42;98101.97;;;11.64;68.36
21086;BME280;34247;50.064;19.970;2023-04-15T03:38:00;98091.50;;;11.63;68.61
21086;BME280;34247;50.064;19.970;2023-04-15T03:39:24;98103.53;;;11.67;68.52
21086;BME280;34247;50.064;19.970;2023-04-15T03:40:35;98097.50;;;11.65;68.08
21086;BME280;34247;50.064;19.970;2023-04-15T03:41:41;98096.41;;;11.67;68.23
21086;BME280;34247;50.064;19.970;2023-04-15T03:42:45;98102.56;;;11.68;67.97
21086;BME280;34247;50.064;19.970;2023-04-15T03:44:02;98097.25;;;11.68;67.82
21086;BME280;34247;50.064;19.970;2023-04-15T03:45:27;98107.72;;;11.69;67.74
21086;BME280;34247;50.064;19.970;2023-04-15T03:46:31;98104.63;;;11.64;68.60
21086;BME280;34247;50.064;19.970;2023-04-15T03:47:38;98106.75;;;11.60;68.28
21086;BME280;34247;50.064;19.970;2023-04-15T03:48:48;98110.09;;;11.63;68.33
21086;BME280;34247;50.064;19.970;2023-04-15T03:49:55;98114.72;;;11.60;68.56
21086;BME280;34247;50.064;19.970;2023-04-15T03:51:02;98113.16;;;11.58;69.36
21086;BME280;34247;50.064;19.970;2023-04-15T03:52:07;98116.66;;;11.58;69.29
21086;BME280;34247;50.064;19.970;2023-04-15T03:53:44;98119.19;;;11.60;69.30
21086;BME280;34247;50.064;19.970;2023-04-15T03:54:48;98122.25;;;11.65;68.99
21086;BME280;34247;50.064;19.970;2023-04-15T03:55:57;98118.50;;;11.68;68.82
21086;BME280;34247;50.064;19.970;2023-04-15T03:57:21;98127.47;;;11.67;68.50
21086;BME280;34247;50.064;19.970;2023-04-15T03:58:27;98128.41;;;11.66;68.67
21086;BME280;34247;50.064;19.970;2023-04-15T03:59:33;98135.69;;;11.64;68.76
21086;BME280;34247;50.064;19.970;2023-04-15T04:00:45;98135.84;;;11.62;69.38
21086;BME280;34247;50.064;19.970;2023-04-15T04:01:56;98133.72;;;11.66;69.04
21086;BME280;34247;50.064;19.970;2023-04-15T04:03:25;98145.63;;;11.62;69.74
21086;BME280;34247;50.064;19.970;2023-04-15T04:04:45;98146.19;;;11.65;69.82
21086;BME280;34247;50.064;19.970;2023-04-15T04:05:57;98149.13;;;11.62;70.29
21086;BME280;34247;50.064;19.970;2023-04-15T04:07:16;98151.34;;;11.57;71.29
21086;BME280;34247;50.064;19.970;2023-04-15T04:08:21;98155.81;;;11.56;71.17
21086;BME280;34247;50.064;19.970;2023-04-15T04:09:31;98155.41;;;11.61;70.65
21086;BME280;34247;50.064;19.970;2023-04-15T04:10:37;98155.28;;;11.63;70.44
21086;BME280;34247;50.064;19.970;2023-04-15T04:11:47;98156.81;;;11.65;69.99
21086;BME280;34247;50.064;19.970;2023-04-15T04:12:53;98149.56;;;11.67;70.01
21086;BME280;34247;50.064;19.970;2023-04-15T04:14:24;98150.41;;;11.68;70.55
21086;BME280;34247;50.064;19.970;2023-04-15T04:15:34;98147.16;;;11.64;71.20
21086;BME280;34247;50.064;19.970;2023-04-15T04:16:51;98151.63;;;11.64;70.68
21086;BME280;34247;50.064;19.970;2023-04-15T04:17:57;98150.53;;;11.66;70.16
21086;BME280;34247;50.064;19.970;2023-04-15T04:19:13;98153.19;;;11.66;70.10
21086;BME280;34247;50.064;19.970;2023-04-15T04:20:21;98152.22;;;11.67;70.17
21086;BME280;34247;50.064;19.970;2023-04-15T04:21:52;98155.00;;;11.66;70.44
21086;BME280;34247;50.064;19.970;2023-04-15T04:23:03;98153.75;;;11.70;70.30
21086;BME280;34247;50.064;19.970;2023-04-15T04:24:25;98153.88;;;11.68;70.26
21086;BME280;34247;50.064;19.970;2023-04-15T04:25:42;98155.28;;;11.72;69.74
21086;BME280;34247;50.064;19.970;2023-04-15T04:26:58;98162.00;;;11.76;69.52
21086;BME280;34247;50.064;19.970;2023-04-15T04:28:08;98156.97;;;11.73;69.82
21086;BME280;34247;50.064;19.970;2023-04-15T04:29:17;98159.91;;;11.70;70.50
21086;BME280;34247;50.064;19.970;2023-04-15T04:30:29;98157.53;;;11.67;70.91
21086;BME280;34247;50.064;19.970;2023-04-15T04:31:39;98152.75;;;11.71;70.88
21086;BME280;34247;50.064;19.970;2023-04-15T04:32:43;98159.34;;;11.67;71.54
21086;BME280;34247;50.064;19.970;2023-04-15T04:33:47;98162.00;;;11.67;71.55
21086;BME280;34247;50.064;19.970;2023-04-15T04:35:03;98154.72;;;11.59;71.88
21086;BME280;34247;50.064;19.970;2023-04-15T04:36:30;98153.31;;;11.55;71.68
21086;BME280;34247;50.064;19.970;2023-04-15T04:37:50;98157.50;;;11.57;71.33
21086;BME280;34247;50.064;19.970;2023-04-15T04:39:00;98154.44;;;11.62;71.39
21086;BME280;34247;50.064;19.970;2023-04-15T04:40:21;98156.97;;;11.64;71.01
21086;BME280;34247;50.064;19.970;2023-04-15T04:41:26;98160.31;;;11.66;70.90
21086;BME280;34247;50.064;19.970;2023-04-15T04:42:35;98154.44;;;11.62;71.44
21086;BME280;34247;50.064;19.970;2023-04-15T04:43:58;98161.03;;;11.68;71.54
21086;BME280;34247;50.064;19.970;2023-04-15T04:45:24;98155.16;;;11.74;70.83
21086;BME280;34247;50.064;19.970;2023-04-15T04:46:40;98153.47;;;11.73;70.79
21086;BME280;34247;50.064;19.970;2023-04-15T04:47:44;98153.34;;;11.74;70.77
21086;BME280;34247;50.064;19.970;2023-04-15T04:49:00;98160.59;;;11.72;71.12
21086;BME280;34247;50.064;19.970;2023-04-15T04:50:18;98153.59;;;11.71;70.58
21086;BME280;34247;50.064;19.970;2023-04-15T04:51:30;98161.44;;;11.73;70.92
21086;BME280;34247;50.064;19.970;2023-04-15T04:52:38;98164.28;;;11.81;70.40
21086;BME280;34247;50.064;19.970;2023-04-15T04:53:42;98161.88;;;11.87;70.13
21086;BME280;34247;50.064;19.970;2023-04-15T04:54:46;98165.66;;;11.85;69.74
21086;BME280;34247;50.064;19.970;2023-04-15T04:55:49;98164.53;;;11.87;69.86
21086;BME280;34247;50.064;19.970;2023-04-15T04:56:53;98165.97;;;11.92;69.63
21086;BME280;34247;50.064;19.970;2023-04-15T04:57:57;98166.78;;;11.92;69.85
21086;BME280;34247;50.064;19.970;2023-04-15T04:59:01;98167.63;;;11.93;69.82
21086;BME280;34247;50.064;19.970;2023-04-15T05:00:08;98172.69;;;11.96;69.87
21086;BME280;34247;50.064;19.970;2023-04-15T05:01:13;98162.75;;;11.98;69.93
21086;BME280;34247;50.064;19.970;2023-04-15T05:02:17;98169.59;;;12.00;69.96
21086;BME280;34247;50.064;19.970;2023-04-15T05:03:21;98170.31;;;12.02;70.15
21086;BME280;34247;50.064;19.970;2023-04-15T05:04:26;98164.84;;;12.04;70.10
21086;BME280;34247;50.064;19.970;2023-04-15T05:05:40;98169.59;;;12.00;70.18
21086;BME280;34247;50.064;19.970;2023-04-15T05:06:52;98170.97;;;11.95;71.19
21086;BME280;34247;50.064;19.970;2023-04-15T05:07:59;98168.34;;;11.85;71.73
21086;BME280;34247;50.064;19.970;2023-04-15T05:09:12;98172.81;;;11.84;72.33
21086;BME280;34247;50.064;19.970;2023-04-15T05:10:31;98171.00;;;11.85;72.29
21086;BME280;34247;50.064;19.970;2023-04-15T05:11:38;98174.91;;;11.91;72.22
21086;BME280;34247;50.064;19.970;2023-04-15T05:12:45;98179.38;;;12.00;71.70
21086;BME280;34247;50.064;19.970;2023-04-15T05:14:03;98169.19;;;12.05;71.85
21086;BME280;34247;50.064;19.970;2023-04-15T05:15:13;98180.25;;;12.10;71.25
21086;BME280;34247;50.064;19.970;2023-04-15T05:16:22;98172.13;;;12.11;71.55
21086;BME280;34247;50.064;19.970;2023-04-15T05:17:26;98173.78;;;12.12;71.76
21086;BME280;34247;50.064;19.970;2023-04-15T05:18:32;98176.16;;;12.15;72.06
21086;BME280;34247;50.064;19.970;2023-04-15T05:19:40;98179.09;;;12.22;71.43
21086;BME280;34247;50.064;19.970;2023-04-15T05:20:51;98184.16;;;12.25;71.51
21086;BME280;34247;50.064;19.970;2023-04-15T05:22:00;98186.50;;;12.28;71.45
21086;BME280;34247;50.064;19.970;2023-04-15T05:23:14;98188.59;;;12.34;71.29
21086;BME280;34247;50.064;19.970;2023-04-15T05:24:35;98191.38;;;12.42;71.25
21086;BME280;34247;50.064;19.970;2023-04-15T05:25:52;98196.72;;;12.42;71.16
21086;BME280;34247;50.064;19.970;2023-04-15T05:26:59;98191.66;;;12.49;71.08
21086;BME280;34247;50.064;19.970;2023-04-15T05:28:14;98185.91;;;12.54;70.61
21086;BME280;34247;50.064;19.970;2023-04-15T05:29:38;98187.66;;;12.73;69.59
21086;BME280;34247;50.064;19.970;2023-04-15T05:30:59;98189.03;;;12.86;68.80
21086;BME280;34247;50.064;19.970;2023-04-15T05:32:10;98186.97;;;13.08;69.16
21086;BME280;34247;50.064;19.970;2023-04-15T05:33:31;98198.28;;;13.29;67.78
21086;BME280;34247;50.064;19.970;2023-04-15T05:35:00;98197.66;;;13.63;67.28
21086;BME280;34247;50.064;19.970;2023-04-15T05:36:19;98196.91;;;13.88;66.18
21086;BME280;34247;50.064;19.970;2023-04-15T05:37:29;98192.72;;;14.03;64.47
21086;BME280;34247;50.064;19.970;2023-04-15T05:38:50;98195.34;;;14.13;63.22
21086;BME280;34247;50.064;19.970;2023-04-15T05:40:00;98187.56;;;14.20;63.42
21086;BME280;34247;50.064;19.970;2023-04-15T05:41:16;98188.63;;;14.27;62.36
21086;BME280;34247;50.064;19.970;2023-04-15T05:42:40;98196.63;;;14.27;61.17
21086;BME280;34247;50.064;19.970;2023-04-15T05:43:51;98198.28;;;14.46;60.76
21086;BME280;34247;50.064;19.970;2023-04-15T05:44:57;98199.22;;;14.62;58.73
21086;BME280;34247;50.064;19.970;2023-04-15T05:46:04;98189.50;;;14.79;60.20
21086;BME280;34247;50.064;19.970;2023-04-15T05:47:22;98191.63;;;15.02;59.32
21086;BME280;34247;50.064;19.970;2023-04-15T05:48:28;98191.72;;;15.18;58.04
21086;BME280;34247;50.064;19.970;2023-04-15T05:49:36;98193.72;;;15.16;57.23
21086;BME280;34247;50.064;19.970;2023-04-15T05:50:57;98194.91;;;15.22;56.40
21086;BME280;34247;50.064;19.970;2023-04-15T05:52:15;98194.00;;;15.13;57.06
21086;BME280;34247;50.064;19.970;2023-04-15T05:53:32;98194.84;;;15.13;57.42
21086;BME280;34247;50.064;19.970;2023-04-15T05:54:48;98195.59;;;14.98;56.96
21086;BME280;34247;50.064;19.970;2023-04-15T05:56:28;98196.19;;;15.09;57.27
21086;BME280;34247;50.064;19.970;2023-04-15T05:57:46;98201.94;;;15.23;57.01
21086;BME280;34247;50.064;19.970;2023-04-15T05:58:53;98191.41;;;15.21;56.09
21086;BME280;34247;50.064;19.970;2023-04-15T06:00:16;98195.41;;;15.25;55.80
21086;BME280;34247;50.064;19.970;2023-04-15T06:01:20;98189.28;;;15.41;56.41
21086;BME280;34247;50.064;19.970;2023-04-15T06:02:31;98192.53;;;15.61;55.83
21086;BME280;34247;50.064;19.970;2023-04-15T06:03:45;98197.31;;;15.99;56.01
21086;BME280;34247;50.064;19.970;2023-04-15T06:05:03;98200.00;;;16.08;53.04
21086;BME280;34247;50.064;19.970;2023-04-15T06:06:23;98204.88;;;16.04;53.49
21086;BME280;34247;50.064;19.970;2023-04-15T06:07:54;98207.53;;;16.12;54.35
21086;BME280;34247;50.064;19.970;2023-04-15T06:09:22;98195.00;;;16.21;53.20
21086;BME280;34247;50.064;19.970;2023-04-15T06:10:37;98209.91;;;16.32;53.31
21086;BME280;34247;50.064;19.970;2023-04-15T06:11:53;98207.88;;;16.58;52.72
21086;BME280;34247;50.064;19.970;2023-04-15T06:13:04;98207.22;;;16.72;51.61
21086;BME280;34247;50.064;19.970;2023-04-15T06:14:17;98209.38;;;16.85;51.76